CheckWX is a tool to help pilots better visualize weather data.  It is not intended as a substitute for an official pre-flight weather briefing.

00:38:17 UTC

ENKR METAR
Kirkenes , Høybuktmoen Airport
Kirkenes, Norway
Current

48 mins ago

ENKR 162350Z 03009KT 9999 -RA BKN003 07/06 Q1016 RMK WIND 731FT 03015KT
Observed
Jul-16 @ 23:50 UTC
Wind
  • 030° at 9 KTS
Visibility
10,000+ meters
Flight Rules
LIFR
Conditions
Light Rain
Cloud Levels
  • Broken at 300' AGL
Temperature
C / 45°F
Dewpoint
C / 43°F
Humidity
93%
Altimeter
30" Hg
Pressure
1015.92 hPa
Previous

1 hour ago

ENKR 162320Z 02008KT 6000 -RA BKN003 07/06 Q1016 RMK WIND 731FT 02017KT
Observed
Jul-16 @ 23:20 UTC
Wind
  • 020° at 8 KTS
Visibility
6,000 meters
Flight Rules
LIFR
Conditions
Light Rain
Cloud Levels
  • Broken at 300' AGL
Temperature
C / 45°F
Dewpoint
C / 43°F
Humidity
93%
Altimeter
30" Hg
Pressure
1015.92 hPa
Previous

2 hours ago

ENKR 162250Z 01009KT 9000 -RA BKN003 07/06 Q1016 RMK WIND 731FT 02017KT
Observed
Jul-16 @ 22:50 UTC
Wind
  • 010° at 9 KTS
Visibility
9,000 meters
Flight Rules
LIFR
Conditions
Light Rain
Cloud Levels
  • Broken at 300' AGL
Temperature
C / 45°F
Dewpoint
C / 43°F
Humidity
93%
Altimeter
30" Hg
Pressure
1015.92 hPa